KELK/ELK METAR and TAF weather

Enter ICAO airport designator
Station Type Date Time Source
KELK METAR 2022/05/23 14:55 UTC NOAA

KELK 231455Z AUTO 00000KT 10SM VCTS OVC014 11/10 A3017 RMK AO2 LTG DSNT NE THRU SE T01080099


Station Type Date Time Source
KELK Decoded METAR 2022/05/23 14:55 UTC NOAA

Station name not available
May 23, 2022 - 10:55 AM EDT / 2022.05.23 1455 UTC
Wind: Calm:0
Visibility: 10 mile(s):0
Sky conditions: overcast
Weather: thunder in the vicinity; Lightning observed
Temperature: 51.4 F (10.8 C)
Dew Point: 49.8 F (9.9 C)
Relative Humidity: 94%
Pressure (altimeter): 30.17 in. Hg (1021 hPa)
ob: KELK 231455Z AUTO 00000KT 10SM VCTS OVC014 11/10 A3017 RMK AO2 LTG DSNT NE THRU SE T01080099
cycle: 15

Station Type Date Time Source
KELK TAF UTC NOAA

Error!

Example: see airport list